createdAt,value
2022-07-28T00:01:55.883Z,57.44
2022-07-28T00:04:25.103Z,57.46
2022-07-28T00:06:54.415Z,57.40
2022-07-28T00:09:23.637Z,57.45
2022-07-28T00:11:54.925Z,57.57
2022-07-28T00:14:26.194Z,57.50
2022-07-28T00:16:55.682Z,57.42
2022-07-28T00:19:24.961Z,57.67
2022-07-28T00:21:54.299Z,57.61
2022-07-28T00:24:24.592Z,57.80
2022-07-28T00:26:53.957Z,58.04
2022-07-28T00:29:23.449Z,58.11
2022-07-28T00:31:54.423Z,58.22
2022-07-28T00:34:26.570Z,58.22
2022-07-28T00:36:56.334Z,58.49
2022-07-28T00:39:25.564Z,58.23
2022-07-28T00:41:54.836Z,58.22
2022-07-28T00:44:24.269Z,58.08
2022-07-28T00:46:55.085Z,58.16
2022-07-28T00:49:24.608Z,58.18
2022-07-28T00:51:54.369Z,58.17
2022-07-28T00:54:23.672Z,58.34
2022-07-28T00:56:53.530Z,58.11
2022-07-28T00:59:22.715Z,58.27
2022-07-28T01:01:53.212Z,58.19
2022-07-28T01:04:26.253Z,58.25
2022-07-28T01:07:03.807Z,58.37
2022-07-28T01:09:54.350Z,58.28
2022-07-28T01:12:47.173Z,58.08
2022-07-28T01:15:26.773Z,58.23
2022-07-28T01:18:06.394Z,58.40
2022-07-28T01:20:43.212Z,58.31
2022-07-28T01:24:06.370Z,58.41
2022-07-28T01:26:53.048Z,58.23
2022-07-28T01:30:22.492Z,58.76
2022-07-28T01:33:02.768Z,58.39
2022-07-28T01:35:38.192Z,58.27
2022-07-28T01:38:11.674Z,58.34
2022-07-28T01:40:46.148Z,58.67
2022-07-28T01:43:24.864Z,58.68
2022-07-28T01:45:57.699Z,59.01
2022-07-28T01:48:28.925Z,59.03
2022-07-28T01:50:59.051Z,59.05
2022-07-28T01:53:32.018Z,59.11
2022-07-28T01:56:08.923Z,59.32
2022-07-28T01:58:40.148Z,59.22
2022-07-28T02:01:13.371Z,59.38
2022-07-28T02:03:45.027Z,59.27
2022-07-28T02:06:16.763Z,59.21
2022-07-28T02:08:48.560Z,59.19
2022-07-28T02:11:35.561Z,59.18
2022-07-28T02:14:05.833Z,59.10
2022-07-28T02:16:36.904Z,59.50
2022-07-28T02:19:06.967Z,59.70
2022-07-28T02:21:38.077Z,59.69
2022-07-28T02:24:09.298Z,59.92
2022-07-28T02:26:43.338Z,59.93
2022-07-28T02:29:40.413Z,59.81
2022-07-28T02:32:27.339Z,60.34
2022-07-28T02:35:02.144Z,60.01
2022-07-28T02:37:38.916Z,60.01
2022-07-28T02:40:14.921Z,59.94
2022-07-28T02:42:49.220Z,60.14
2022-07-28T02:45:25.555Z,59.98
2022-07-28T02:48:03.099Z,60.24
2022-07-28T02:50:32.706Z,60.14
2022-07-28T02:53:15.509Z,60.25
2022-07-28T02:55:51.012Z,60.09
2022-07-28T02:58:23.991Z,60.55
2022-07-28T03:00:55.928Z,60.22
2022-07-28T03:03:27.180Z,60.46
2022-07-28T03:05:57.002Z,60.45
2022-07-28T03:08:26.380Z,60.40
2022-07-28T03:11:10.087Z,60.73
2022-07-28T03:13:39.959Z,60.60
2022-07-28T03:16:09.598Z,60.70
2022-07-28T03:18:40.271Z,60.54
2022-07-28T03:21:11.289Z,60.49
2022-07-28T03:23:45.229Z,60.37
2022-07-28T03:26:20.634Z,60.52
2022-07-28T03:28:52.660Z,60.76
2022-07-28T03:31:23.090Z,60.68
2022-07-28T03:33:54.007Z,60.71
2022-07-28T03:36:30.471Z,60.50
2022-07-28T03:39:04.131Z,60.59
2022-07-28T03:41:35.008Z,60.89
2022-07-28T03:44:04.891Z,61.08
2022-07-28T03:46:34.574Z,60.94
2022-07-28T03:49:09.699Z,61.34
2022-07-28T03:51:39.827Z,61.19
2022-07-28T03:54:09.212Z,61.32
2022-07-28T03:56:38.566Z,61.34
2022-07-28T03:59:07.814Z,61.44
2022-07-28T04:01:37.230Z,61.69
2022-07-28T04:04:08.387Z,61.65
2022-07-28T04:06:37.789Z,61.58
2022-07-28T04:09:07.098Z,61.44
2022-07-28T04:11:36.452Z,61.68
2022-07-28T04:14:05.898Z,61.70
2022-07-28T04:16:35.334Z,61.71
2022-07-28T04:19:04.826Z,61.75
2022-07-28T04:21:35.444Z,61.84
2022-07-28T04:24:04.737Z,61.76
2022-07-28T04:26:33.934Z,61.95
2022-07-28T04:29:03.562Z,61.97
2022-07-28T04:31:33.109Z,61.93
2022-07-28T04:34:02.536Z,62.07
2022-07-28T04:36:32.517Z,62.06
2022-07-28T04:39:03.481Z,62.09
2022-07-28T04:41:32.786Z,61.93
2022-07-28T04:44:02.018Z,62.12
2022-07-28T04:46:31.349Z,62.08
2022-07-28T04:49:00.694Z,62.11
2022-07-28T04:51:29.985Z,62.31
2022-07-28T04:53:59.254Z,62.23
2022-07-28T04:56:29.909Z,62.24
2022-07-28T04:58:59.574Z,62.55
2022-07-28T05:01:29.845Z,62.54
2022-07-28T05:03:59.186Z,62.42
2022-07-28T05:06:28.568Z,62.79
2022-07-28T05:08:58.344Z,62.57
2022-07-28T05:11:29.165Z,62.58
2022-07-28T05:13:58.526Z,62.63
2022-07-28T05:16:27.803Z,62.75
2022-07-28T05:18:57.364Z,62.75
2022-07-28T05:21:26.726Z,62.78
2022-07-28T05:23:56.244Z,63.06
2022-07-28T05:26:27.012Z,62.81
2022-07-28T05:29:00.060Z,63.00
2022-07-28T05:31:29.593Z,62.72
2022-07-28T05:33:58.947Z,62.65
2022-07-28T05:36:31.049Z,62.66
2022-07-28T05:39:00.389Z,62.80
2022-07-28T05:41:29.986Z,62.57
2022-07-28T05:44:01.823Z,62.63
2022-07-28T05:46:31.109Z,62.58
2022-07-28T05:49:00.825Z,62.74
2022-07-28T05:51:30.087Z,62.81
2022-07-28T05:53:59.286Z,62.53
2022-07-28T05:56:28.958Z,62.63
2022-07-28T05:59:00.187Z,62.77
2022-07-28T06:01:29.484Z,62.61
2022-07-28T06:04:25.911Z,62.56
2022-07-28T06:06:48.722Z,62.52
2022-07-28T06:09:17.977Z,62.52
2022-07-28T06:11:47.248Z,62.46
2022-07-28T06:14:18.316Z,62.17
2022-07-28T06:16:51.320Z,62.33
2022-07-28T06:19:20.903Z,61.57
2022-07-28T06:21:52.630Z,61.46
2022-07-28T06:24:21.871Z,60.65
2022-07-28T06:26:52.843Z,59.99
2022-07-28T06:29:24.625Z,60.48
2022-07-28T06:31:53.888Z,60.27
2022-07-28T06:34:23.205Z,60.14
2022-07-28T06:36:53.081Z,59.99
2022-07-28T06:39:22.270Z,59.87
2022-07-28T06:41:51.753Z,59.57
2022-07-28T06:44:23.747Z,59.77
2022-07-28T06:46:54.193Z,59.42
2022-07-28T06:49:23.675Z,59.24
2022-07-28T06:51:52.995Z,58.84
2022-07-28T06:54:22.250Z,58.56
2022-07-28T06:56:52.331Z,58.62
2022-07-28T06:59:23.511Z,58.70
2022-07-28T07:01:52.776Z,58.73
2022-07-28T07:04:22.089Z,57.68
2022-07-28T07:06:51.395Z,58.16
2022-07-28T07:09:20.676Z,57.84
2022-07-28T07:11:50.154Z,56.23
2022-07-28T07:14:19.619Z,56.52
2022-07-28T07:16:50.879Z,56.04
2022-07-28T07:19:20.808Z,55.95
2022-07-28T07:21:50.630Z,56.13
2022-07-28T07:24:20.325Z,56.07
2022-07-28T07:26:51.712Z,55.45
2022-07-28T07:29:23.004Z,55.44
2022-07-28T07:31:53.847Z,55.42
2022-07-28T07:34:23.117Z,55.09
2022-07-28T07:36:52.693Z,55.11
2022-07-28T07:39:21.945Z,55.10
2022-07-28T07:41:51.509Z,55.03
2022-07-28T07:44:20.771Z,55.09
2022-07-28T07:46:50.271Z,54.97
2022-07-28T07:49:20.983Z,54.78
2022-07-28T07:51:50.405Z,54.46
2022-07-28T07:54:20.603Z,54.45
2022-07-28T07:56:49.774Z,54.54
2022-07-28T07:59:18.912Z,54.73
2022-07-28T08:01:54.363Z,54.76
2022-07-28T08:04:26.284Z,54.90
2022-07-28T08:06:58.274Z,54.80
2022-07-28T08:09:27.933Z,54.89
2022-07-28T08:11:57.242Z,54.53
2022-07-28T08:14:26.592Z,54.60
2022-07-28T08:16:56.862Z,54.75
2022-07-28T08:19:28.014Z,54.09
2022-07-28T08:21:57.382Z,54.36
2022-07-28T08:24:27.686Z,54.36
2022-07-28T08:27:02.626Z,54.53
2022-07-28T08:29:32.097Z,54.74
2022-07-28T08:32:03.898Z,54.65
2022-07-28T08:34:35.586Z,54.95
2022-07-28T08:37:07.322Z,55.03
2022-07-28T08:39:37.572Z,55.00
2022-07-28T08:42:10.383Z,55.13
2022-07-28T08:44:48.979Z,55.00
2022-07-28T08:47:18.898Z,55.23
2022-07-28T08:49:51.330Z,55.33
2022-07-28T08:52:21.751Z,55.23
2022-07-28T08:54:52.311Z,55.13
2022-07-28T08:57:27.662Z,55.01
2022-07-28T08:59:57.235Z,55.17
2022-07-28T09:02:29.243Z,55.11
2022-07-28T09:05:01.022Z,55.00
2022-07-28T09:07:30.454Z,55.12
2022-07-28T09:10:02.726Z,55.45
2022-07-28T09:12:32.047Z,55.72
2022-07-28T09:15:03.251Z,55.64
2022-07-28T09:17:33.815Z,55.57
2022-07-28T09:20:10.417Z,55.76
2022-07-28T09:23:00.215Z,55.94
2022-07-28T09:25:30.879Z,55.95
2022-07-28T09:28:09.818Z,55.88
2022-07-28T09:30:53.640Z,56.15
2022-07-28T09:33:41.956Z,55.75
2022-07-28T09:36:17.482Z,55.90
2022-07-28T09:38:46.986Z,56.18
2022-07-28T09:41:19.163Z,56.21
2022-07-28T09:43:54.439Z,55.77
2022-07-28T09:46:29.240Z,55.38
2022-07-28T09:49:02.496Z,55.33
2022-07-28T09:51:34.381Z,54.64
2022-07-28T09:54:13.763Z,54.36
2022-07-28T09:56:46.347Z,54.01
2022-07-28T09:59:18.243Z,53.16
2022-07-28T10:01:56.707Z,52.65
2022-07-28T10:04:44.486Z,50.96
2022-07-28T10:07:17.409Z,49.99
2022-07-28T10:09:58.805Z,48.18
2022-07-28T10:12:30.727Z,47.30
2022-07-28T10:15:32.581Z,47.79
2022-07-28T10:18:02.070Z,47.30
2022-07-28T10:20:32.885Z,47.14
2022-07-28T10:23:06.507Z,47.15
2022-07-28T10:25:36.862Z,44.54
2022-07-28T10:28:07.082Z,45.57
2022-07-28T10:30:41.481Z,44.37
2022-07-28T10:33:17.351Z,45.17
2022-07-28T10:35:55.234Z,44.88
2022-07-28T10:38:31.548Z,44.73
2022-07-28T10:41:03.836Z,44.90
2022-07-28T10:43:33.613Z,45.58
2022-07-28T10:46:07.346Z,46.16
2022-07-28T10:48:39.192Z,46.60
2022-07-28T10:51:09.368Z,46.79
2022-07-28T10:53:48.228Z,45.83
2022-07-28T10:56:25.384Z,44.91
2022-07-28T10:59:07.591Z,45.12
2022-07-28T11:01:53.863Z,44.25
2022-07-28T11:04:55.500Z,43.15
2022-07-28T11:07:24.927Z,43.45
2022-07-28T11:10:15.460Z,43.73
2022-07-28T11:12:49.581Z,44.01
2022-07-28T11:15:35.153Z,43.46
2022-07-28T11:18:10.906Z,43.07
2022-07-28T11:21:11.566Z,43.08
2022-07-28T11:23:56.236Z,42.84
2022-07-28T11:26:38.529Z,42.96
2022-07-28T11:29:23.936Z,42.70
2022-07-28T11:32:03.494Z,42.64
2022-07-28T11:35:15.547Z,41.18
2022-07-28T11:38:13.320Z,39.79
2022-07-28T11:40:46.013Z,39.61
2022-07-28T11:43:43.791Z,37.51
2022-07-28T11:46:25.050Z,37.69
2022-07-28T11:49:25.237Z,37.63
2022-07-28T11:52:24.669Z,38.08
2022-07-28T11:54:58.545Z,38.70
2022-07-28T11:57:28.862Z,38.99
2022-07-28T12:00:02.848Z,39.02
2022-07-28T12:02:36.405Z,39.05
2022-07-28T12:05:13.097Z,38.16
2022-07-28T12:07:51.845Z,37.18
2022-07-28T12:13:28.867Z,36.40
2022-07-28T12:15:59.732Z,36.86
2022-07-28T12:18:29.765Z,36.85
2022-07-28T12:21:04.946Z,36.80
2022-07-28T12:23:38.942Z,36.83
2022-07-28T12:26:31.217Z,37.34
2022-07-28T12:29:01.394Z,37.12
2022-07-28T12:31:33.428Z,37.23
2022-07-28T12:34:03.085Z,36.37
2022-07-28T12:36:32.239Z,37.16
2022-07-28T12:39:01.885Z,36.94
2022-07-28T12:41:35.309Z,36.38
2022-07-28T12:44:06.903Z,36.00
2022-07-28T12:46:38.032Z,35.76
2022-07-28T12:49:22.741Z,35.89
2022-07-28T12:51:52.241Z,36.89
2022-07-28T12:54:37.087Z,37.52
2022-07-28T12:57:06.645Z,38.43
2022-07-28T12:59:38.440Z,38.97
2022-07-28T13:02:09.590Z,39.21
2022-07-28T13:04:42.685Z,40.24
2022-07-28T13:07:14.823Z,40.75
2022-07-28T13:09:53.202Z,41.35
2022-07-28T13:12:31.652Z,42.15
2022-07-28T13:15:02.908Z,42.62
2022-07-28T13:17:52.575Z,43.29
2022-07-28T13:20:24.586Z,43.91
2022-07-28T13:22:54.972Z,43.99
2022-07-28T13:25:24.523Z,44.17
2022-07-28T13:27:55.553Z,44.29
2022-07-28T13:30:25.484Z,44.45
2022-07-28T13:32:56.831Z,44.29
2022-07-28T13:35:26.329Z,44.21
2022-07-28T13:37:55.489Z,43.58
2022-07-28T13:40:24.895Z,43.53
2022-07-28T13:42:56.843Z,42.87
2022-07-28T13:45:30.327Z,42.45
2022-07-28T13:48:01.387Z,42.42
2022-07-28T13:50:30.828Z,42.28
2022-07-28T13:53:00.033Z,42.55
2022-07-28T13:55:30.939Z,42.60
2022-07-28T13:58:00.609Z,42.96
2022-07-28T14:00:31.165Z,43.48
2022-07-28T14:03:02.378Z,43.50
2022-07-28T14:05:32.542Z,43.61
2022-07-28T14:08:03.085Z,44.10
2022-07-28T14:10:32.492Z,44.09
2022-07-28T14:13:01.990Z,44.17
2022-07-28T14:15:31.335Z,43.63
2022-07-28T14:18:01.957Z,43.49
2022-07-28T14:20:31.413Z,43.47
2022-07-28T14:23:01.782Z,43.40
2022-07-28T14:25:48.221Z,43.32
2022-07-28T14:28:18.674Z,43.88
2022-07-28T14:30:47.849Z,44.23
2022-07-28T14:33:19.486Z,44.74
2022-07-28T14:35:48.961Z,45.14
2022-07-28T14:41:07.378Z,45.24
2022-07-28T14:43:36.643Z,45.38
2022-07-28T14:46:16.353Z,45.33
2022-07-28T14:48:52.282Z,45.37
2022-07-28T14:51:21.577Z,45.53
2022-07-28T14:53:52.108Z,46.10
2022-07-28T14:56:21.564Z,46.07
2022-07-28T14:58:50.840Z,46.07
2022-07-28T15:01:20.148Z,46.20
2022-07-28T15:03:49.423Z,46.10
2022-07-28T15:06:19.959Z,46.33
2022-07-28T15:08:49.271Z,46.40
2022-07-28T15:11:18.503Z,46.64
2022-07-28T15:13:47.757Z,46.46
2022-07-28T15:16:17.532Z,46.62
2022-07-28T15:18:46.750Z,46.80
2022-07-28T15:21:17.336Z,46.86
2022-07-28T15:23:48.580Z,47.18
2022-07-28T15:26:17.846Z,47.69
2022-07-28T15:28:48.645Z,47.62
2022-07-28T15:31:19.860Z,47.84
2022-07-28T15:33:54.876Z,48.16
2022-07-28T15:36:27.778Z,48.23
2022-07-28T15:38:58.365Z,48.23
2022-07-28T15:41:28.565Z,48.09
2022-07-28T15:43:57.854Z,47.87
2022-07-28T15:46:27.408Z,47.57
2022-07-28T15:48:57.059Z,47.40
2022-07-28T15:51:27.094Z,47.50
2022-07-28T15:54:00.996Z,47.40
2022-07-28T15:56:31.763Z,47.47
2022-07-28T15:59:02.088Z,47.25
2022-07-28T16:01:31.519Z,47.59
2022-07-28T16:04:02.212Z,47.10
2022-07-28T16:06:45.989Z,47.14
2022-07-28T16:09:16.751Z,46.83
2022-07-28T16:11:46.094Z,46.51
2022-07-28T16:14:15.757Z,46.44
2022-07-28T16:16:45.543Z,46.31
2022-07-28T16:19:46.158Z,46.38
2022-07-28T16:22:05.209Z,46.42
2022-07-28T16:24:35.841Z,46.78
2022-07-28T16:27:05.322Z,47.04
2022-07-28T16:29:35.670Z,47.27
2022-07-28T16:32:07.913Z,47.72
2022-07-28T16:34:37.124Z,48.08
2022-07-28T16:37:06.551Z,48.17
2022-07-28T16:39:37.228Z,48.39
2022-07-28T16:42:07.478Z,48.76
2022-07-28T16:44:37.752Z,49.35
2022-07-28T16:47:07.250Z,50.40
2022-07-28T16:49:38.051Z,50.95
2022-07-28T16:52:10.264Z,51.42
2022-07-28T16:54:40.943Z,51.95
2022-07-28T16:57:10.294Z,52.26
2022-07-28T16:59:47.937Z,53.02
2022-07-28T17:02:19.247Z,53.78
2022-07-28T17:04:48.966Z,54.22
2022-07-28T17:07:18.595Z,54.63
2022-07-28T17:09:49.210Z,55.89
2022-07-28T17:12:18.492Z,56.27
2022-07-28T17:14:48.052Z,56.69
2022-07-28T17:17:17.319Z,57.31
2022-07-28T17:19:48.112Z,57.82
2022-07-28T17:22:18.361Z,57.89
2022-07-28T17:24:49.460Z,58.35
2022-07-28T17:30:10.128Z,58.61
2022-07-28T17:32:39.463Z,58.04
2022-07-28T17:35:34.611Z,57.99
2022-07-28T17:38:01.456Z,58.17
2022-07-28T17:40:32.690Z,58.20
2022-07-28T17:43:01.987Z,58.14
2022-07-28T17:45:31.496Z,58.29
2022-07-28T17:48:00.904Z,58.44
2022-07-28T17:50:30.992Z,58.19
2022-07-28T17:53:01.821Z,58.28
2022-07-28T17:55:39.199Z,58.17
2022-07-28T17:58:29.300Z,58.10
2022-07-28T18:01:10.946Z,58.18
2022-07-28T18:03:57.608Z,58.06
2022-07-28T18:06:32.868Z,58.36
2022-07-28T18:09:06.854Z,58.20
2022-07-28T18:11:57.332Z,58.30
2022-07-28T18:14:29.987Z,57.96
2022-07-28T18:17:00.293Z,57.85
2022-07-28T18:19:30.878Z,58.25
2022-07-28T18:22:00.252Z,57.99
2022-07-28T18:24:29.881Z,57.80
2022-07-28T18:27:00.598Z,57.82
2022-07-28T18:29:38.203Z,57.60
2022-07-28T18:32:09.918Z,57.84
2022-07-28T18:34:41.348Z,57.68
2022-07-28T18:37:10.735Z,57.43
2022-07-28T18:39:40.280Z,57.32
2022-07-28T18:42:11.929Z,57.37
2022-07-28T18:44:41.475Z,56.85
2022-07-28T18:47:11.081Z,56.82
2022-07-28T18:49:40.587Z,56.69
2022-07-28T18:52:10.485Z,56.97
2022-07-28T18:54:39.788Z,56.97
2022-07-28T18:57:10.604Z,56.96
2022-07-28T18:59:44.582Z,56.92
2022-07-28T19:02:16.209Z,56.83
2022-07-28T19:04:47.215Z,56.78
2022-07-28T19:07:17.225Z,56.81
2022-07-28T19:09:46.514Z,56.73
2022-07-28T19:12:20.148Z,56.93
2022-07-28T19:14:49.422Z,56.84
2022-07-28T19:17:20.745Z,57.13
2022-07-28T19:19:56.160Z,57.34
2022-07-28T19:22:25.688Z,57.22
2022-07-28T19:24:55.325Z,57.60
2022-07-28T19:27:26.067Z,57.80
2022-07-28T19:30:00.110Z,57.88
2022-07-28T19:32:29.365Z,58.18
2022-07-28T19:34:59.402Z,58.37
2022-07-28T19:37:28.943Z,58.54
2022-07-28T19:39:58.139Z,58.65
2022-07-28T19:42:31.543Z,59.10
2022-07-28T19:45:01.744Z,59.10
2022-07-28T19:47:31.271Z,58.96
2022-07-28T19:50:00.752Z,59.36
2022-07-28T19:52:30.314Z,59.33
2022-07-28T19:55:00.471Z,59.52
2022-07-28T19:57:31.102Z,59.49
2022-07-28T20:00:02.203Z,59.81
2022-07-28T20:02:41.284Z,59.42
2022-07-28T20:05:11.907Z,59.63
2022-07-28T20:07:41.357Z,59.91
2022-07-28T20:10:11.197Z,59.90
2022-07-28T20:12:42.508Z,59.77
2022-07-28T20:15:13.160Z,59.80
2022-07-28T20:17:42.828Z,59.77
2022-07-28T20:20:14.727Z,59.82
2022-07-28T20:22:44.568Z,60.33
2022-07-28T20:25:14.777Z,60.13
2022-07-28T20:27:45.963Z,60.35
2022-07-28T20:30:15.537Z,60.46
2022-07-28T20:32:45.544Z,60.54
2022-07-28T20:35:15.338Z,60.82
2022-07-28T20:37:45.205Z,60.67
2022-07-28T20:40:14.597Z,60.54
2022-07-28T20:42:49.808Z,60.98
2022-07-28T20:45:22.950Z,61.23
2022-07-28T20:47:52.583Z,61.36
2022-07-28T20:50:22.141Z,61.06
2022-07-28T20:52:51.925Z,61.37
2022-07-28T20:55:21.932Z,61.28
2022-07-28T20:57:55.953Z,61.56
2022-07-28T21:00:26.653Z,61.54
2022-07-28T21:02:56.099Z,61.83
2022-07-28T21:05:35.059Z,61.83
2022-07-28T21:08:09.546Z,62.02
2022-07-28T21:10:46.671Z,62.02
2022-07-28T21:13:18.744Z,62.12
2022-07-28T21:15:48.203Z,62.41
2022-07-28T21:18:18.556Z,62.53
2022-07-28T21:20:48.012Z,62.49
2022-07-28T21:23:19.171Z,62.60
2022-07-28T21:25:51.412Z,62.68
2022-07-28T21:28:39.502Z,62.83
2022-07-28T21:31:09.978Z,63.36
2022-07-28T21:33:39.445Z,63.32
2022-07-28T21:36:09.665Z,63.33
2022-07-28T21:38:39.625Z,63.49
2022-07-28T21:41:09.016Z,63.72
2022-07-28T21:43:40.123Z,63.82
2022-07-28T21:46:11.797Z,63.98
2022-07-28T21:48:41.356Z,64.86
2022-07-28T21:51:18.248Z,65.39
2022-07-28T21:53:52.705Z,65.15
2022-07-28T21:56:22.242Z,65.40
2022-07-28T21:58:53.275Z,65.73
2022-07-28T22:01:24.015Z,66.18
2022-07-28T22:03:53.358Z,65.73
2022-07-28T22:06:23.217Z,66.42
2022-07-28T22:08:54.683Z,67.49
2022-07-28T22:11:24.270Z,67.14
2022-07-28T22:13:55.062Z,66.85
2022-07-28T22:16:24.443Z,66.82
2022-07-28T22:18:53.832Z,66.90
2022-07-28T22:21:23.137Z,67.16
2022-07-28T22:23:52.678Z,66.98
2022-07-28T22:26:21.970Z,67.19
2022-07-28T22:28:51.434Z,67.16
2022-07-28T22:31:22.444Z,67.36
2022-07-28T22:33:52.136Z,67.10
2022-07-28T22:36:21.549Z,67.42
2022-07-28T22:38:50.966Z,68.02
2022-07-28T22:41:20.306Z,67.97
2022-07-28T22:43:49.722Z,67.88
2022-07-28T22:46:19.272Z,68.10
2022-07-28T22:48:50.539Z,68.12
2022-07-28T22:51:19.963Z,68.20
2022-07-28T22:53:49.542Z,68.42
2022-07-28T22:56:19.763Z,68.78
2022-07-28T22:58:49.229Z,69.09
2022-07-28T23:01:18.873Z,69.27
2022-07-28T23:03:49.855Z,69.35
2022-07-28T23:06:20.334Z,69.16
2022-07-28T23:08:49.988Z,69.63
2022-07-28T23:11:19.352Z,69.47
2022-07-28T23:13:48.773Z,69.38
2022-07-28T23:16:18.325Z,69.52
2022-07-28T23:18:47.758Z,69.32
2022-07-28T23:21:18.434Z,69.34
2022-07-28T23:23:47.954Z,69.24
2022-07-28T23:26:17.413Z,69.34
2022-07-28T23:28:46.734Z,69.06
2022-07-28T23:31:16.137Z,69.08
2022-07-28T23:33:55.021Z,68.56
2022-07-28T23:36:28.317Z,68.85
2022-07-28T23:38:59.604Z,68.76
2022-07-28T23:41:29.293Z,69.20
2022-07-28T23:43:58.729Z,68.94
2022-07-28T23:46:28.119Z,68.94
2022-07-28T23:48:57.716Z,68.98
2022-07-28T23:51:47.179Z,68.63
2022-07-28T23:54:18.170Z,68.50
2022-07-28T23:56:48.101Z,69.03
2022-07-28T23:59:17.789Z,68.63
